Latest Coastal Weather Observations for Yamba

IDN60701

Issued at 4:11 am EST Monday 31 August 2015 (issued every 10 minutes, with the page automatically refreshed every 10 minutes)

About coastal observations | Map of coastal stations | Coastal observations for NSW | Marine services | Other Formats
Station Details ID: 058012 Name: YAMBA PILOT STATION Lat: -29.43 Lon: 153.36 Height: 27.4 m
Data from the previous 72 hours. | See also: Recent months at Yamba
Date/Time
EST
Temp

°C
Wind Pressure Rain
since 9am
mm
Weather Cloud Vis
km
Sea
Height
m
Swell
Dir
 
Speed
knots
Gust
knots
hPa Trend Height
m
Period
s
Dir
31/04:00am 11.3 W 5 8 1015.1 - 0.0 - - - - - - -
31/03:30am 11.9 WSW 4 5 1015.0 - 0.0 - - - - - - -
31/03:00am 12.3 SW 5 8 1015.2 - 0.0 - - - - - - -
31/02:30am 12.3 SW 4 7 1015.5 - 0.0 - - - - - - -
31/02:00am 12.5 SW 4 7 1015.7 - 0.0 - - - - - - -
31/01:30am 12.7 WSW 4 7 1015.8 - 0.0 - - - - - - -
31/01:00am 13.0 WSW 4 8 1016.0 - 0.0 - - - - - - -
31/12:30am 13.3 SW 4 7 1016.3 - 0.0 - - - - - - -
31/12:00am 13.4 SW 4 6 1016.4 - 0.0 - - - - - - -
 
Date/Time
EST
Temp

°C
Wind Pressure Rain
since 9am
mm
Weather Cloud Vis
km
Sea
Height
m
Swell
Dir
 
Speed
knots
Gust
knots
hPa Trend Height
m
Period
s
Dir
30/11:30pm 13.8 WSW 4 6 1016.4 - 0.0 - - - - - - -
30/11:00pm 13.9 SW 4 8 1016.4 - 0.0 - - - - - - -
30/10:30pm 14.5 WSW 5 7 1016.5 - 0.0 - - - - - - -
30/10:00pm 15.3 SW 4 8 1016.5 - 0.0 - - - - - - -
30/09:30pm 16.4 SW 4 7 1016.6 - 0.0 - - - - - - -
30/09:00pm 17.9 SSE 9 13 1016.5 - 0.0 - - - - - - -
30/08:30pm 17.7 SSE 10 14 1016.4 - 0.0 - - - - - - -
30/08:00pm 17.8 SSE 12 18 1016.1 - 0.0 - - - - - - -
30/07:30pm 17.8 SE 14 18 1015.9 - 0.0 - - - - - - -
30/07:00pm 17.8 SE 15 19 1015.6 - 0.0 - - - - - - -
30/06:30pm 17.6 SSE 15 20 1015.3 - 0.0 - - - - - - -
30/06:00pm 17.5 SSE 14 21 1015.0 - 0.0 - - - - - - -
30/05:30pm 17.5 SE 15 21 1014.8 - 0.0 - - - - - - -
30/05:00pm 17.6 SSE 14 19 1014.7 - 0.0 - - - - - - -
30/04:30pm 17.9 SSE 14 19 1014.4 - 0.0 - - - - - - -
30/04:00pm 18.0 SSE 13 21 1014.4 - 0.0 - - - - - - -
30/03:30pm 18.2 SSE 14 21 1014.3 - 0.0 - - - - - - -
30/03:00pm 18.4 SSE 14 21 1014.5 - 0.0 - - - - - - -
30/02:30pm 18.6 SSE 14 21 1014.6 - 0.0 - - - - - - -
30/02:00pm 19.2 SSE 13 19 1014.8 - 0.0 - - - - - - -
30/01:30pm 18.8 SSE 14 22 1015.0 - 0.0 - - - - - - -
30/01:00pm 19.1 SSE 14 22 1015.3 - 0.0 - - - - - - -
30/12:30pm 19.1 SSE 14 20 1015.7 - 0.0 - - - - - - -
30/12:00pm 19.1 SSE 14 21 1016.1 - 0.0 - - - - - - -
30/11:30am 19.0 SSE 14 21 1016.5 - 0.0 - - - - - - -
30/11:00am 19.3 SSE 13 20 1016.8 - 0.0 - - - - - - -
30/10:30am 19.4 SSE 12 19 1017.3 - 0.0 - - - - - - -
30/10:00am 19.0 SSE 12 19 1017.3 - 0.0 - - - - - - -
30/09:30am 18.7 SSE 11 18 1017.4 - 0.0 - - - - - - -
30/09:00am 17.9 S 9 14 1017.4 - 0.0 - - - - - - -
30/08:30am 17.0 SSW 7 13 1017.2 - 0.0 - - - - - - -
30/08:00am 15.7 SSW 6 9 1017.3 - 0.0 - - - - - - -
30/07:30am 14.8 SW 5 11 1017.2 - 0.0 - - - - - - -
30/07:00am 14.0 SW 5 8 1017.1 - 0.0 - - - - - - -
30/06:30am 13.9 SW 4 7 1016.9 - 0.0 - - - - - - -
30/06:00am 14.1 WSW 4 7 1016.6 - 0.0 - - - - - - -
30/05:30am 14.3 WSW 5 8 1016.5 - 0.0 - - - - - - -
30/05:00am 14.5 W 5 8 1016.2 - 0.0 - - - - - - -
30/04:30am 14.6 WSW 4 7 1016.0 - 0.0 - - - - - - -
30/04:00am 14.9 SW 2 4 1015.8 - 0.0 - - - - - - -
30/03:30am 15.3 W 4 6 1015.7 - 0.0 - - - - - - -
30/03:00am 15.7 NW 2 4 1016.0 - 0.0 - - - - - - -
30/02:30am 15.9 NW 4 5 1016.3 - 0.0 - - - - - - -
30/02:00am 16.2 NW 5 8 1016.9 - 0.0 - - - - - - -
30/01:30am 16.2 NNW 4 6 1016.6 - 0.0 - - - - - - -
30/01:00am 16.4 NW 6 8 1017.5 - 0.0 - - - - - - -
30/12:30am 16.5 NNW 5 7 1017.5 - 0.0 - - - - - - -
30/12:00am 16.7 NNW 5 8 1017.7 - 0.0 - - - - - - -
 
Date/Time
EST
Temp

°C
Wind Pressure Rain
since 9am
mm
Weather Cloud Vis
km
Sea
Height
m
Swell
Dir
 
Speed
knots
Gust
knots
hPa Trend Height
m
Period
s
Dir
29/11:30pm 17.2 NNW 6 8 1018.3 - 0.0 - - - - - - -
29/11:00pm 17.3 N 5 9 1018.1 - 0.0 - - - - - - -
29/10:30pm 17.8 NNW 8 14 1018.7 - 0.0 - - - - - - -
29/10:00pm 17.8 N 6 11 1018.5 - 0.0 - - - - - - -
29/09:30pm 18.2 N 7 12 1018.8 - 0.0 - - - - - - -
29/09:00pm 18.4 N 5 8 1018.8 - 0.0 - - - - - - -
29/08:30pm 18.5 N 5 9 1018.9 - 0.0 - - - - - - -
29/08:00pm 18.5 NNW 5 11 1018.7 - 0.0 - - - - - - -
29/07:30pm 18.5 NNW 5 8 1019.0 - 0.0 - - - - - - -
29/07:00pm 18.6 N 6 9 1018.9 - 0.0 - - - - - - -
29/06:30pm 18.4 N 5 10 1019.0 - 0.0 - - - - - - -
29/06:00pm 18.4 NNE 6 10 1018.8 - 0.0 - - - - - - -
29/05:30pm 18.4 NNE 7 12 1018.7 - 0.0 - - - - - - -
29/05:00pm 18.5 NNE 7 11 1018.5 - 0.0 - - - - - - -
29/04:30pm 18.7 NNE 7 12 1018.3 - 0.0 - - - - - - -
29/04:00pm 19.3 NNE 7 11 1018.4 - 0.0 - - - - - - -
29/03:30pm 19.6 NNE 6 9 1018.5 - 0.0 - - - - - - -
29/03:00pm 19.9 NE 6 10 1018.6 - 0.0 - - - - - - -
29/02:30pm 20.2 NE 5 9 1019.0 - 0.0 - - - - - - -
29/02:00pm 19.8 ENE 6 8 1019.4 - 0.0 - - - - - - -
29/01:30pm 19.8 NE 5 7 1020.0 - 0.0 - - - - - - -
29/01:00pm 19.2 ENE 5 7 1020.5 - 0.0 - - - - - - -
29/12:30pm 20.0 ENE 5 6 1020.9 - 0.0 - - - - - - -
29/12:00pm 19.6 ENE 5 6 1021.6 - 0.0 - - - - - - -
29/11:30am 20.7 NW 4 5 1022.1 - 0.0 - - - - - - -
29/11:00am 20.1 NW 4 6 1022.7 - 0.0 - - - - - - -
29/10:30am 18.5 W 5 8 1023.3 - 0.0 - - - - - - -
29/10:00am 16.5 WSW 6 8 1023.3 - 0.0 - - - - - - -
29/09:30am 17.0 WSW 6 9 1023.4 - 0.0 - - - - - - -
29/09:00am 15.5 WSW 6 9 1023.7 - 0.2 - - - - - - -
29/08:30am 13.7 WSW 7 11 1023.7 - 0.2 - - - - - - -
29/08:00am 12.8 WSW 8 12 1023.6 - 0.2 - - - - - - -
29/07:30am 11.9 WSW 7 9 1023.5 - 0.2 - - - - - - -
29/07:00am 10.9 WSW 7 9 1023.3 - 0.2 - - - - - - -
29/06:30am 10.6 WSW 8 11 1023.0 - 0.2 - - - - - - -
29/06:00am 10.6 WSW 7 9 1022.6 - 0.2 - - - - - - -
29/05:30am 10.9 WSW 7 10 1022.3 - 0.2 - - - - - - -
29/05:00am 11.0 WSW 7 9 1022.1 - 0.2 - - - - - - -
29/04:30am 11.0 WSW 8 9 1022.0 - 0.2 - - - - - - -
29/04:00am 11.1 WSW 8 9 1021.7 - 0.2 - - - - - - -
29/03:30am 11.5 WSW 7 9 1021.8 - 0.2 - - - - - - -
29/03:00am 11.7 WSW 7 9 1022.0 - 0.2 - - - - - - -
29/02:30am 12.1 WSW 7 8 1022.0 - 0.2 - - - - - - -
29/02:00am 12.0 WSW 7 8 1022.1 - 0.2 - - - - - - -
29/01:30am 12.6 WSW 7 8 1022.2 - 0.2 - - - - - - -
29/01:00am 13.2 SW 7 8 1022.3 - 0.2 - - - - - - -
29/12:30am 13.8 SW 7 9 1022.8 - 0.2 - - - - - - -
29/12:00am 14.0 SW 3 5 1022.8 - 0.2 - - - - - - -
 
Date/Time
EST
Temp

°C
Wind Pressure Rain
since 9am
mm
Weather Cloud Vis
km
Sea
Height
m
Swell
Dir
 
Speed
knots
Gust
knots
hPa Trend Height
m
Period
s
Dir
28/11:30pm 14.5 SW 6 9 1022.7 - 0.2 - - - - - - -
28/11:00pm 15.5 NNW 2 4 1022.7 - 0.2 - - - - - - -
28/10:30pm 17.5 E 4 6 1022.8 - 0.2 - - - - - - -
28/10:00pm 17.7 E 4 6 1022.8 - 0.2 - - - - - - -
28/09:30pm 18.0 E 6 8 1022.9 - 0.2 - - - - - - -
28/09:00pm 18.0 E 7 10 1022.5 - 0.2 - - - - - - -
28/08:30pm 18.2 E 8 12 1022.1 - 0.2 - - - - - - -
28/08:00pm 18.3 E 7 12 1021.9 - 0.2 - - - - - - -
28/07:30pm 18.4 E 8 11 1021.4 - 0.2 - - - - - - -
28/07:00pm 18.3 ESE 10 14 1020.7 - 0.2 - - - - - - -
28/06:30pm 18.2 E 7 11 1020.2 - 0.2 - - - - - - -
28/06:00pm 18.3 E 7 8 1019.9 - 0.2 - - - - - - -
28/05:30pm 18.2 E 6 9 1019.6 - 0.2 - - - - - - -
28/05:00pm 18.8 E 6 8 1019.3 - 0.2 - - - - - - -
28/04:30pm 19.6 ENE 5 8 1019.1 - 0.2 - - - - - - -
28/04:00pm 22.5 NNW 5 7 1018.7 - 0.2 - - - - - - -
28/03:30pm 22.5 NW 5 8 1018.5 - 0.2 - - - - - - -
28/03:00pm 22.6 NW 5 8 1018.7 - 0.2 - - - - - - -
28/02:30pm 22.5 WNW 7 12 1018.8 - 0.2 - - - - - - -
28/02:00pm 22.8 NNW 5 11 1018.9 - 0.2 - - - - - - -
28/01:30pm 21.7 WNW 7 11 1019.4 - 0.2 - - - - - - -
28/01:00pm 21.4 W 7 14 1019.7 - 0.2 - - - - - - -
28/12:30pm 20.9 W 8 13 1019.9 - 0.2 - - - - - - -
28/12:00pm 20.3 W 10 16 1020.4 - 0.2 Recent precip. - - - - - -
28/11:30am 19.7 W 10 17 1020.9 - 0.2 - - - - - - -
28/11:00am 19.0 W 10 17 1021.6 - 0.0 - - - - - - -
28/10:30am 18.5 WSW 9 17 1022.0 - 0.0 - - - - - - -
28/10:00am 18.6 WSW 7 13 1022.2 - 0.0 - - - - - - -
28/09:30am 17.8 WSW 8 16 1022.3 - 0.0 - - - - - - -
28/09:00am 17.3 WSW 6 11 1022.3 - 4.0 - - - - - - -
28/08:30am 16.2 WSW 6 12 1022.2 - 4.0 - - - - - - -
28/08:00am 14.7 WSW 5 8 1021.9 - 4.0 - - - - - - -
28/07:30am 14.1 SW 4 7 1021.8 - 4.0 - - - - - - -
28/07:00am 13.8 SW 5 7 1021.6 - 4.0 - - - - - - -
28/06:30am 13.6 WSW 3 6 1021.3 - 4.0 - - - - - - -
28/06:00am 13.8 WSW 5 7 1020.8 - 4.0 - - - - - - -
28/05:30am 14.1 W 6 9 1020.4 - 4.0 - - - - - - -
28/05:00am 14.3 W 6 9 1020.1 - 4.0 - - - - - - -
28/04:30am 14.4 W 6 9 1019.9 - 4.0 - - - - - - -

Other Formats:

Comma delimited format used in spreadsheet applications
http://www.bom.gov.au/fwo/IDN60701/IDN60701.94589.axf

JavaScript Object Notation format (JSON) in row-major order
http://www.bom.gov.au/fwo/IDN60701/IDN60701.94589.json